createdAt,value
2023-05-06T00:03:13.611Z,3.22
2023-05-06T00:08:17.152Z,2.65
2023-05-06T00:13:19.138Z,1.95
2023-05-06T00:18:22.778Z,2.50
2023-05-06T00:23:26.062Z,2.05
2023-05-06T00:28:28.013Z,2.47
2023-05-06T00:33:29.959Z,2.17
2023-05-06T00:38:33.265Z,2.00
2023-05-06T00:43:35.232Z,2.65
2023-05-06T00:48:37.527Z,2.47
2023-05-06T00:53:41.058Z,2.30
2023-05-06T00:58:43.941Z,2.88
2023-05-06T01:03:46.999Z,2.30
2023-05-06T01:09:08.690Z,2.28
2023-05-06T01:14:17.014Z,2.33
2023-05-06T01:19:34.858Z,2.45
2023-05-06T01:24:39.962Z,2.30
2023-05-06T01:29:44.106Z,2.33
2023-05-06T01:34:55.173Z,2.25
2023-05-06T01:40:00.802Z,2.60
2023-05-06T01:45:07.059Z,3.00
2023-05-06T01:50:10.236Z,3.65
2023-05-06T01:55:13.592Z,2.72
2023-05-06T02:00:16.464Z,3.90
2023-05-06T02:05:18.747Z,2.90
2023-05-06T02:10:22.186Z,3.10
2023-05-06T02:15:24.125Z,3.25
2023-05-06T02:20:26.289Z,3.45
2023-05-06T02:25:29.580Z,3.17
2023-05-06T02:30:32.252Z,3.13
2023-05-06T02:35:34.201Z,2.65
2023-05-06T02:40:37.463Z,2.83
2023-05-06T02:50:41.448Z,2.03
2023-05-06T02:55:44.808Z,2.70
2023-05-06T03:05:48.580Z,2.78
2023-05-06T03:10:52.356Z,3.47
2023-05-06T03:15:54.587Z,2.88
2023-05-06T03:20:56.510Z,2.83
2023-05-06T03:25:59.762Z,2.90
2023-05-06T03:36:04.085Z,2.92
2023-05-06T03:41:07.549Z,3.40
2023-05-06T03:46:09.509Z,3.28
2023-05-06T03:51:11.561Z,2.85
2023-05-06T03:56:18.042Z,2.92
2023-05-06T04:01:20.563Z,2.45
2023-05-06T04:06:22.629Z,2.88
2023-05-06T04:11:27.067Z,2.40
2023-05-06T04:16:30.650Z,3.17
2023-05-06T04:21:33.091Z,3.08
2023-05-06T04:26:36.628Z,2.78
2023-05-06T04:31:38.931Z,2.90
2023-05-06T04:36:41.028Z,3.30
2023-05-06T04:41:44.501Z,3.00
2023-05-06T04:46:47.445Z,3.63
2023-05-06T04:56:52.539Z,3.72
2023-05-06T05:01:54.703Z,4.45
2023-05-06T05:06:57.652Z,3.80
2023-05-06T05:12:02.564Z,3.75
2023-05-06T05:17:04.627Z,4.60
2023-05-06T05:22:06.605Z,4.45
2023-05-06T05:27:10.897Z,4.35
2023-05-06T05:32:12.869Z,5.18
2023-05-06T05:37:14.819Z,3.53
2023-05-06T05:42:18.182Z,4.65
2023-05-06T05:47:20.602Z,3.95
2023-05-06T05:52:22.615Z,3.53
2023-05-06T05:57:26.090Z,3.40
2023-05-06T06:02:28.098Z,3.50
2023-05-06T06:07:30.204Z,3.75
2023-05-06T06:12:33.548Z,5.43
2023-05-06T06:17:35.732Z,3.90
2023-05-06T06:22:37.991Z,4.88
2023-05-06T06:27:41.340Z,4.60
2023-05-06T06:32:49.251Z,3.10
2023-05-06T06:37:51.689Z,3.30
2023-05-06T06:42:55.137Z,3.47
2023-05-06T06:47:57.370Z,3.22
2023-05-06T06:52:59.801Z,3.38
2023-05-06T06:58:03.277Z,3.80
2023-05-06T07:03:05.295Z,3.92
2023-05-06T07:08:09.591Z,3.22
2023-05-06T07:13:13.056Z,3.45
2023-05-06T07:18:15.282Z,3.50
2023-05-06T07:23:17.334Z,3.17
2023-05-06T07:28:20.924Z,3.42
2023-05-06T07:33:22.964Z,3.35
2023-05-06T07:43:28.262Z,3.13
2023-05-06T07:48:30.828Z,3.25
2023-05-06T07:53:33.016Z,3.10
2023-05-06T07:58:36.329Z,3.55
2023-05-06T08:03:38.532Z,3.92
2023-05-06T08:08:40.637Z,3.45
2023-05-06T08:13:43.939Z,4.05
2023-05-06T08:18:45.928Z,3.42
2023-05-06T08:23:47.878Z,3.20
2023-05-06T08:33:54.648Z,3.35
2023-05-06T08:38:57.053Z,3.58
2023-05-06T08:49:03.710Z,3.20
2023-05-06T08:59:09.401Z,3.47
2023-05-06T09:04:12.512Z,3.60
2023-05-06T09:09:15.016Z,3.85
2023-05-06T09:14:18.390Z,3.90
2023-05-06T09:19:21.992Z,4.05
2023-05-06T09:24:24.134Z,4.55
2023-05-06T09:34:29.488Z,3.97
2023-05-06T09:39:31.489Z,4.07
2023-05-06T09:44:34.946Z,4.07
2023-05-06T09:49:37.088Z,3.83
2023-05-06T09:54:39.995Z,4.45
2023-05-06T09:59:43.764Z,4.43
2023-05-06T10:04:48.392Z,4.00
2023-05-06T10:09:53.298Z,8.23
2023-05-06T10:15:00.201Z,8.13
2023-05-06T10:20:05.257Z,9.23
2023-05-06T10:25:16.760Z,9.85
2023-05-06T10:30:20.896Z,11.27
2023-05-06T10:35:38.372Z,9.88
2023-05-06T10:40:40.877Z,7.97
2023-05-06T10:51:27.612Z,9.43
2023-05-06T10:56:31.955Z,5.68
2023-05-06T11:01:35.390Z,4.72
2023-05-06T11:06:44.412Z,4.88
2023-05-06T11:11:48.351Z,4.38
2023-05-06T11:16:52.046Z,4.32
2023-05-06T11:21:57.407Z,4.63
2023-05-06T11:27:00.375Z,4.45
2023-05-06T11:32:03.647Z,5.05
2023-05-06T11:37:07.868Z,4.28
2023-05-06T11:42:09.952Z,3.72
2023-05-06T11:47:11.979Z,3.63
2023-05-06T11:52:15.259Z,3.58
2023-05-06T11:57:17.387Z,4.55
2023-05-06T12:02:20.269Z,3.28
2023-05-06T12:07:23.953Z,3.80
2023-05-06T12:12:27.296Z,3.60
2023-05-06T12:17:29.410Z,3.15
2023-05-06T12:22:33.272Z,2.97
2023-05-06T12:27:35.915Z,3.30
2023-05-06T12:37:56.715Z,4.15
2023-05-06T12:42:58.795Z,3.33
2023-05-06T12:48:05.680Z,4.07
2023-05-06T12:53:11.118Z,2.92
2023-05-06T12:58:17.136Z,5.72
2023-05-06T13:03:19.338Z,10.43
2023-05-06T13:13:24.771Z,13.57
2023-05-06T13:18:26.786Z,13.15
2023-05-06T13:23:31.319Z,10.18
2023-05-06T13:28:33.754Z,7.22
2023-05-06T13:38:39.324Z,4.20
2023-05-06T13:43:41.283Z,4.15
2023-05-06T13:48:43.224Z,4.85
2023-05-06T13:53:46.556Z,6.70
2023-05-06T13:58:48.611Z,6.68
2023-05-06T14:03:50.763Z,5.88
2023-05-06T14:08:54.085Z,6.85
2023-05-06T14:13:57.212Z,9.02
2023-05-06T14:18:59.363Z,7.28
2023-05-06T14:29:07.112Z,6.85
2023-05-06T14:34:09.247Z,8.35
2023-05-06T14:39:12.686Z,9.40
2023-05-06T14:44:15.244Z,8.77
2023-05-06T14:49:17.201Z,10.15
2023-05-06T14:54:20.626Z,10.73
2023-05-06T14:59:22.897Z,9.57
2023-05-06T15:09:28.408Z,11.70
2023-05-06T15:14:30.361Z,16.40
2023-05-06T15:19:33.444Z,11.90
2023-05-06T15:24:36.843Z,13.88
2023-05-06T15:29:41.560Z,10.52
2023-05-06T15:34:43.579Z,15.02
2023-05-06T15:39:47.800Z,15.75
2023-05-06T15:44:51.454Z,13.73
2023-05-06T15:49:55.030Z,13.20
2023-05-06T15:55:00.088Z,12.15
2023-05-06T16:00:02.163Z,14.45
2023-05-06T16:05:04.693Z,9.13
2023-05-06T16:10:09.035Z,11.50
2023-05-06T16:15:11.432Z,13.27
2023-05-06T16:20:13.738Z,13.05
2023-05-06T16:30:19.307Z,11.75
2023-05-06T16:35:21.316Z,12.82
2023-05-06T16:40:24.681Z,12.02
2023-05-06T16:45:26.698Z,13.18
2023-05-06T16:50:28.878Z,12.05
2023-05-06T16:55:32.325Z,12.38
2023-05-06T17:00:34.373Z,11.60
2023-05-06T17:05:36.464Z,8.40
2023-05-06T17:10:39.758Z,9.00
2023-05-06T17:15:41.774Z,10.50
2023-05-06T17:20:54.215Z,10.18
2023-05-06T17:25:59.586Z,10.63
2023-05-06T17:31:01.576Z,6.20
2023-05-06T17:36:03.907Z,12.30
2023-05-06T17:41:07.260Z,11.38
2023-05-06T17:46:09.542Z,11.77
2023-05-06T17:51:11.642Z,6.55
2023-05-06T17:56:15.024Z,10.40
2023-05-06T18:01:17.025Z,13.25
2023-05-06T18:06:19.007Z,13.48
2023-05-06T18:11:22.432Z,12.80
2023-05-06T18:16:24.537Z,20.90
2023-05-06T18:21:27.696Z,12.02
2023-05-06T18:26:43.969Z,14.23
2023-05-06T18:31:48.106Z,11.00
2023-05-06T18:36:50.245Z,9.52
2023-05-06T18:41:53.570Z,11.48
2023-05-06T18:46:55.777Z,12.35
2023-05-06T18:51:57.797Z,10.95
2023-05-06T18:57:02.312Z,11.95
2023-05-06T19:02:05.778Z,11.90
2023-05-06T19:07:07.936Z,10.05
2023-05-06T19:12:11.499Z,12.35
2023-05-06T19:17:14.322Z,10.30
2023-05-06T19:27:19.577Z,10.88
2023-05-06T19:32:21.549Z,10.10
2023-05-06T19:37:23.569Z,9.35
2023-05-06T19:42:26.906Z,10.73
2023-05-06T19:47:29.504Z,10.77
2023-05-06T19:52:33.358Z,8.18
2023-05-06T19:57:37.331Z,7.53
2023-05-06T20:02:40.278Z,8.63
2023-05-06T20:07:42.405Z,9.70
2023-05-06T20:12:45.803Z,12.98
2023-05-06T20:17:47.961Z,11.13
2023-05-06T20:22:50.037Z,10.45
2023-05-06T20:27:53.400Z,11.82
2023-05-06T20:32:55.398Z,11.95
2023-05-06T20:37:57.422Z,14.20
2023-05-06T20:43:00.970Z,10.93
2023-05-06T20:48:03.087Z,11.82
2023-05-06T20:53:05.147Z,12.65
2023-05-06T20:58:08.618Z,11.95
2023-05-06T21:03:10.809Z,14.82
2023-05-06T21:08:13.259Z,14.68
2023-05-06T21:13:16.644Z,14.05
2023-05-06T21:18:18.875Z,16.05
2023-05-06T21:23:21.115Z,15.55
2023-05-06T21:28:24.569Z,12.27
2023-05-06T21:33:26.549Z,15.98
2023-05-06T21:38:28.551Z,14.77
2023-05-06T21:43:33.294Z,13.55
2023-05-06T21:48:35.686Z,13.48
2023-05-06T21:53:37.660Z,12.98
2023-05-06T21:58:40.969Z,10.23
2023-05-06T22:03:44.056Z,7.97
2023-05-06T22:08:46.186Z,10.40
2023-05-06T22:13:50.859Z,10.32
2023-05-06T22:18:53.090Z,11.20
2023-05-06T22:23:55.016Z,11.70
2023-05-06T22:28:58.461Z,10.00
2023-05-06T22:34:04.397Z,9.40
2023-05-06T22:39:06.643Z,10.02
2023-05-06T22:44:10.181Z,12.35
2023-05-06T22:49:12.140Z,13.40
2023-05-06T22:54:14.099Z,9.50
2023-05-06T22:59:17.409Z,12.35
2023-05-06T23:04:19.404Z,11.75
2023-05-06T23:09:21.528Z,11.88
2023-05-06T23:14:24.992Z,12.98
2023-05-06T23:19:26.972Z,14.93
2023-05-06T23:24:28.923Z,13.98
2023-05-06T23:29:32.214Z,17.40
2023-05-06T23:34:34.203Z,14.68
2023-05-06T23:39:36.426Z,11.30
2023-05-06T23:44:39.962Z,15.32
2023-05-06T23:49:41.973Z,9.80
2023-05-06T23:54:43.927Z,11.63
2023-05-06T23:59:47.234Z,12.13
